sensor_id;sensor_type;location;lat;lon;timestamp;P1;durP1;ratioP1;P2;durP2;ratioP2
11004;SDS011;5555;59.622;16.556;2022-10-31T00:02:20;10.03;;;6.40;;
11004;SDS011;5555;59.622;16.556;2022-10-31T00:04:46;11.30;;;6.27;;
11004;SDS011;5555;59.622;16.556;2022-10-31T00:07:12;11.10;;;6.13;;
11004;SDS011;5555;59.622;16.556;2022-10-31T00:09:37;16.63;;;7.60;;
11004;SDS011;5555;59.622;16.556;2022-10-31T00:12:03;15.00;;;6.60;;
11004;SDS011;5555;59.622;16.556;2022-10-31T00:14:29;11.03;;;6.20;;
11004;SDS011;5555;59.622;16.556;2022-10-31T00:16:54;15.13;;;6.87;;
11004;SDS011;5555;59.622;16.556;2022-10-31T00:19:20;13.83;;;7.60;;
11004;SDS011;5555;59.622;16.556;2022-10-31T00:21:45;11.20;;;6.80;;
11004;SDS011;5555;59.622;16.556;2022-10-31T00:24:11;10.87;;;7.67;;
11004;SDS011;5555;59.622;16.556;2022-10-31T00:26:37;12.10;;;7.50;;
11004;SDS011;5555;59.622;16.556;2022-10-31T00:29:02;8.47;;;6.63;;
11004;SDS011;5555;59.622;16.556;2022-10-31T00:31:28;10.73;;;7.17;;
11004;SDS011;5555;59.622;16.556;2022-10-31T00:33:54;9.97;;;6.13;;
11004;SDS011;5555;59.622;16.556;2022-10-31T00:36:20;10.07;;;5.73;;
11004;SDS011;5555;59.622;16.556;2022-10-31T00:38:46;11.53;;;6.60;;
11004;SDS011;5555;59.622;16.556;2022-10-31T00:41:14;13.17;;;6.50;;
11004;SDS011;5555;59.622;16.556;2022-10-31T00:43:41;11.70;;;6.37;;
11004;SDS011;5555;59.622;16.556;2022-10-31T00:46:07;11.13;;;6.83;;
11004;SDS011;5555;59.622;16.556;2022-10-31T00:48:33;9.07;;;6.87;;
11004;SDS011;5555;59.622;16.556;2022-10-31T00:50:59;10.50;;;6.40;;
11004;SDS011;5555;59.622;16.556;2022-10-31T00:53:25;10.13;;;6.20;;
11004;SDS011;5555;59.622;16.556;2022-10-31T00:55:50;10.50;;;6.10;;
11004;SDS011;5555;59.622;16.556;2022-10-31T00:58:16;9.77;;;6.47;;
11004;SDS011;5555;59.622;16.556;2022-10-31T01:00:42;14.70;;;6.80;;
11004;SDS011;5555;59.622;16.556;2022-10-31T01:03:08;10.47;;;6.23;;
11004;SDS011;5555;59.622;16.556;2022-10-31T01:05:33;11.93;;;7.17;;
11004;SDS011;5555;59.622;16.556;2022-10-31T01:07:59;9.67;;;6.13;;
11004;SDS011;5555;59.622;16.556;2022-10-31T01:10:25;10.33;;;6.93;;
11004;SDS011;5555;59.622;16.556;2022-10-31T01:12:50;13.23;;;6.83;;
11004;SDS011;5555;59.622;16.556;2022-10-31T01:15:17;12.17;;;7.40;;
11004;SDS011;5555;59.622;16.556;2022-10-31T01:17:45;9.63;;;6.37;;
11004;SDS011;5555;59.622;16.556;2022-10-31T01:20:11;9.60;;;5.67;;
11004;SDS011;5555;59.622;16.556;2022-10-31T01:22:38;11.47;;;7.07;;
11004;SDS011;5555;59.622;16.556;2022-10-31T01:25:04;10.30;;;6.30;;
11004;SDS011;5555;59.622;16.556;2022-10-31T01:27:31;9.23;;;6.80;;
11004;SDS011;5555;59.622;16.556;2022-10-31T01:29:57;11.53;;;6.60;;
11004;SDS011;5555;59.622;16.556;2022-10-31T01:32:22;8.90;;;6.37;;
11004;SDS011;5555;59.622;16.556;2022-10-31T01:34:48;10.90;;;6.43;;
11004;SDS011;5555;59.622;16.556;2022-10-31T01:37:14;7.67;;;6.20;;
11004;SDS011;5555;59.622;16.556;2022-10-31T01:39:40;9.93;;;5.63;;
11004;SDS011;5555;59.622;16.556;2022-10-31T01:42:05;11.73;;;6.97;;
11004;SDS011;5555;59.622;16.556;2022-10-31T01:47:01;11.33;;;6.33;;
11004;SDS011;5555;59.622;16.556;2022-10-31T01:49:35;9.93;;;6.57;;
11004;SDS011;5555;59.622;16.556;2022-10-31T01:52:21;11.10;;;6.60;;
11004;SDS011;5555;59.622;16.556;2022-10-31T01:55:32;11.27;;;5.87;;
11004;SDS011;5555;59.622;16.556;2022-10-31T01:57:42;10.40;;;5.57;;
11004;SDS011;5555;59.622;16.556;2022-10-31T02:00:11;9.27;;;5.63;;
11004;SDS011;5555;59.622;16.556;2022-10-31T02:02:38;9.27;;;5.50;;
11004;SDS011;5555;59.622;16.556;2022-10-31T02:05:05;11.60;;;5.80;;
11004;SDS011;5555;59.622;16.556;2022-10-31T02:07:36;9.07;;;4.87;;
11004;SDS011;5555;59.622;16.556;2022-10-31T02:10:16;10.57;;;5.17;;
11004;SDS011;5555;59.622;16.556;2022-10-31T02:12:44;9.93;;;5.20;;
11004;SDS011;5555;59.622;16.556;2022-10-31T02:15:10;7.90;;;5.17;;
11004;SDS011;5555;59.622;16.556;2022-10-31T02:17:36;8.40;;;5.00;;
11004;SDS011;5555;59.622;16.556;2022-10-31T02:28:28;8.97;;;4.70;;
11004;SDS011;5555;59.622;16.556;2022-10-31T02:34:13;8.10;;;4.17;;
11004;SDS011;5555;59.622;16.556;2022-10-31T02:36:56;9.47;;;4.40;;
11004;SDS011;5555;59.622;16.556;2022-10-31T02:47:50;8.43;;;4.80;;
11004;SDS011;5555;59.622;16.556;2022-10-31T02:50:41;8.37;;;4.47;;
11004;SDS011;5555;59.622;16.556;2022-10-31T02:53:07;10.80;;;4.70;;
11004;SDS011;5555;59.622;16.556;2022-10-31T02:58:04;7.57;;;4.80;;
11004;SDS011;5555;59.622;16.556;2022-10-31T03:00:47;6.97;;;4.40;;
11004;SDS011;5555;59.622;16.556;2022-10-31T03:06:11;8.07;;;4.10;;
11004;SDS011;5555;59.622;16.556;2022-10-31T03:08:42;9.10;;;4.60;;
11004;SDS011;5555;59.622;16.556;2022-10-31T03:11:29;8.77;;;4.40;;
11004;SDS011;5555;59.622;16.556;2022-10-31T03:14:00;7.40;;;4.30;;
11004;SDS011;5555;59.622;16.556;2022-10-31T03:19:09;6.90;;;4.27;;
11004;SDS011;5555;59.622;16.556;2022-10-31T03:24:15;12.47;;;4.93;;
11004;SDS011;5555;59.622;16.556;2022-10-31T03:26:43;7.37;;;4.03;;
11004;SDS011;5555;59.622;16.556;2022-10-31T03:29:13;7.53;;;4.50;;
11004;SDS011;5555;59.622;16.556;2022-10-31T03:31:48;11.17;;;4.53;;
11004;SDS011;5555;59.622;16.556;2022-10-31T03:34:23;7.60;;;4.03;;
11004;SDS011;5555;59.622;16.556;2022-10-31T03:36:50;8.03;;;4.37;;
11004;SDS011;5555;59.622;16.556;2022-10-31T03:39:20;9.67;;;4.90;;
11004;SDS011;5555;59.622;16.556;2022-10-31T03:42:02;8.43;;;4.67;;
11004;SDS011;5555;59.622;16.556;2022-10-31T03:44:50;6.03;;;4.40;;
11004;SDS011;5555;59.622;16.556;2022-10-31T03:47:22;7.00;;;4.53;;
11004;SDS011;5555;59.622;16.556;2022-10-31T03:49:48;11.33;;;5.17;;
11004;SDS011;5555;59.622;16.556;2022-10-31T03:55:06;7.70;;;3.97;;
11004;SDS011;5555;59.622;16.556;2022-10-31T03:57:44;9.17;;;4.93;;
11004;SDS011;5555;59.622;16.556;2022-10-31T04:00:22;8.80;;;4.70;;
11004;SDS011;5555;59.622;16.556;2022-10-31T04:02:59;11.43;;;4.90;;
11004;SDS011;5555;59.622;16.556;2022-10-31T04:05:32;8.17;;;4.70;;
11004;SDS011;5555;59.622;16.556;2022-10-31T04:08:00;8.50;;;4.93;;
11004;SDS011;5555;59.622;16.556;2022-10-31T04:10:28;8.37;;;4.80;;
11004;SDS011;5555;59.622;16.556;2022-10-31T04:12:59;6.97;;;4.67;;
11004;SDS011;5555;59.622;16.556;2022-10-31T04:15:28;7.13;;;5.00;;
11004;SDS011;5555;59.622;16.556;2022-10-31T04:17:56;10.00;;;4.80;;
11004;SDS011;5555;59.622;16.556;2022-10-31T04:20:31;8.20;;;4.23;;
11004;SDS011;5555;59.622;16.556;2022-10-31T04:22:58;6.57;;;4.60;;
11004;SDS011;5555;59.622;16.556;2022-10-31T04:25:25;8.33;;;4.30;;
11004;SDS011;5555;59.622;16.556;2022-10-31T04:27:51;8.27;;;4.80;;
11004;SDS011;5555;59.622;16.556;2022-10-31T04:30:16;6.87;;;4.37;;
11004;SDS011;5555;59.622;16.556;2022-10-31T04:32:42;7.67;;;4.30;;
11004;SDS011;5555;59.622;16.556;2022-10-31T04:35:07;8.30;;;4.83;;
11004;SDS011;5555;59.622;16.556;2022-10-31T04:37:33;7.13;;;4.10;;
11004;SDS011;5555;59.622;16.556;2022-10-31T04:39:59;8.03;;;4.60;;
11004;SDS011;5555;59.622;16.556;2022-10-31T04:42:24;8.83;;;4.80;;
11004;SDS011;5555;59.622;16.556;2022-10-31T04:44:50;7.70;;;4.60;;
11004;SDS011;5555;59.622;16.556;2022-10-31T04:47:15;6.17;;;4.70;;
11004;SDS011;5555;59.622;16.556;2022-10-31T04:49:41;8.07;;;4.47;;
11004;SDS011;5555;59.622;16.556;2022-10-31T04:52:07;7.87;;;3.90;;
11004;SDS011;5555;59.622;16.556;2022-10-31T04:54:33;8.27;;;4.43;;
11004;SDS011;5555;59.622;16.556;2022-10-31T04:56:58;6.53;;;3.97;;
11004;SDS011;5555;59.622;16.556;2022-10-31T04:59:24;7.93;;;4.20;;
11004;SDS011;5555;59.622;16.556;2022-10-31T05:01:49;9.00;;;4.53;;
11004;SDS011;5555;59.622;16.556;2022-10-31T05:04:15;9.17;;;4.17;;
11004;SDS011;5555;59.622;16.556;2022-10-31T05:06:41;11.20;;;4.27;;
11004;SDS011;5555;59.622;16.556;2022-10-31T05:09:06;6.97;;;4.60;;
11004;SDS011;5555;59.622;16.556;2022-10-31T05:11:32;9.80;;;4.30;;
11004;SDS011;5555;59.622;16.556;2022-10-31T05:13:57;6.17;;;3.90;;
11004;SDS011;5555;59.622;16.556;2022-10-31T05:16:23;6.90;;;3.90;;
11004;SDS011;5555;59.622;16.556;2022-10-31T05:18:49;10.80;;;4.77;;
11004;SDS011;5555;59.622;16.556;2022-10-31T05:21:14;7.97;;;3.93;;
11004;SDS011;5555;59.622;16.556;2022-10-31T05:23:40;7.23;;;3.67;;
11004;SDS011;5555;59.622;16.556;2022-10-31T05:26:05;7.03;;;4.50;;
11004;SDS011;5555;59.622;16.556;2022-10-31T05:28:31;7.30;;;4.07;;
11004;SDS011;5555;59.622;16.556;2022-10-31T05:30:57;5.97;;;3.97;;
11004;SDS011;5555;59.622;16.556;2022-10-31T05:33:22;10.60;;;4.50;;
11004;SDS011;5555;59.622;16.556;2022-10-31T05:35:48;7.27;;;4.23;;
11004;SDS011;5555;59.622;16.556;2022-10-31T05:38:13;8.50;;;4.23;;
11004;SDS011;5555;59.622;16.556;2022-10-31T05:40:39;7.63;;;4.27;;
11004;SDS011;5555;59.622;16.556;2022-10-31T05:43:05;10.03;;;4.57;;
11004;SDS011;5555;59.622;16.556;2022-10-31T05:45:30;7.17;;;4.37;;
11004;SDS011;5555;59.622;16.556;2022-10-31T05:47:57;8.70;;;4.40;;
11004;SDS011;5555;59.622;16.556;2022-10-31T05:50:24;7.60;;;4.57;;
11004;SDS011;5555;59.622;16.556;2022-10-31T05:53:09;9.43;;;4.40;;
11004;SDS011;5555;59.622;16.556;2022-10-31T05:55:35;9.17;;;4.60;;
11004;SDS011;5555;59.622;16.556;2022-10-31T05:58:00;10.73;;;4.70;;
11004;SDS011;5555;59.622;16.556;2022-10-31T06:00:27;8.77;;;4.60;;
11004;SDS011;5555;59.622;16.556;2022-10-31T06:03:00;8.70;;;4.77;;
11004;SDS011;5555;59.622;16.556;2022-10-31T06:05:30;9.50;;;4.57;;
11004;SDS011;5555;59.622;16.556;2022-10-31T06:07:56;8.77;;;4.93;;
11004;SDS011;5555;59.622;16.556;2022-10-31T06:10:22;7.63;;;4.50;;
11004;SDS011;5555;59.622;16.556;2022-10-31T06:12:48;12.60;;;5.33;;
11004;SDS011;5555;59.622;16.556;2022-10-31T06:15:14;11.83;;;4.83;;
11004;SDS011;5555;59.622;16.556;2022-10-31T06:17:40;11.17;;;4.67;;
11004;SDS011;5555;59.622;16.556;2022-10-31T06:20:06;12.20;;;4.93;;
11004;SDS011;5555;59.622;16.556;2022-10-31T06:22:32;8.93;;;4.63;;
11004;SDS011;5555;59.622;16.556;2022-10-31T06:24:58;9.13;;;4.67;;
11004;SDS011;5555;59.622;16.556;2022-10-31T06:27:24;12.60;;;5.70;;
11004;SDS011;5555;59.622;16.556;2022-10-31T06:29:50;11.57;;;5.70;;
11004;SDS011;5555;59.622;16.556;2022-10-31T06:32:16;9.93;;;6.13;;
11004;SDS011;5555;59.622;16.556;2022-10-31T06:34:42;10.73;;;5.57;;
11004;SDS011;5555;59.622;16.556;2022-10-31T06:37:09;11.13;;;5.67;;
11004;SDS011;5555;59.622;16.556;2022-10-31T06:39:36;10.53;;;5.27;;
11004;SDS011;5555;59.622;16.556;2022-10-31T06:42:02;11.73;;;6.03;;
11004;SDS011;5555;59.622;16.556;2022-10-31T06:44:28;13.47;;;5.90;;
11004;SDS011;5555;59.622;16.556;2022-10-31T06:46:53;10.83;;;5.37;;
11004;SDS011;5555;59.622;16.556;2022-10-31T06:49:19;17.90;;;5.70;;
11004;SDS011;5555;59.622;16.556;2022-10-31T06:51:48;12.47;;;5.97;;
11004;SDS011;5555;59.622;16.556;2022-10-31T06:54:14;11.60;;;6.50;;
11004;SDS011;5555;59.622;16.556;2022-10-31T06:56:40;11.30;;;6.50;;
11004;SDS011;5555;59.622;16.556;2022-10-31T06:59:05;11.87;;;6.80;;
11004;SDS011;5555;59.622;16.556;2022-10-31T07:01:31;11.77;;;6.40;;
11004;SDS011;5555;59.622;16.556;2022-10-31T07:03:57;14.23;;;7.67;;
11004;SDS011;5555;59.622;16.556;2022-10-31T07:06:23;14.07;;;7.20;;
11004;SDS011;5555;59.622;16.556;2022-10-31T07:08:48;15.07;;;7.67;;
11004;SDS011;5555;59.622;16.556;2022-10-31T07:11:14;17.17;;;7.57;;
11004;SDS011;5555;59.622;16.556;2022-10-31T07:13:40;18.57;;;8.10;;
11004;SDS011;5555;59.622;16.556;2022-10-31T07:16:05;12.23;;;8.40;;
11004;SDS011;5555;59.622;16.556;2022-10-31T07:18:32;13.77;;;8.20;;
11004;SDS011;5555;59.622;16.556;2022-10-31T07:20:58;12.10;;;8.23;;
11004;SDS011;5555;59.622;16.556;2022-10-31T07:23:23;14.50;;;7.97;;
11004;SDS011;5555;59.622;16.556;2022-10-31T07:25:54;11.37;;;7.63;;
11004;SDS011;5555;59.622;16.556;2022-10-31T07:28:23;13.80;;;8.30;;
11004;SDS011;5555;59.622;16.556;2022-10-31T07:30:53;11.77;;;6.90;;
11004;SDS011;5555;59.622;16.556;2022-10-31T07:33:20;11.90;;;7.57;;
11004;SDS011;5555;59.622;16.556;2022-10-31T07:35:46;10.03;;;7.20;;
11004;SDS011;5555;59.622;16.556;2022-10-31T07:38:13;12.53;;;7.50;;
11004;SDS011;5555;59.622;16.556;2022-10-31T07:40:39;12.47;;;7.37;;
11004;SDS011;5555;59.622;16.556;2022-10-31T07:43:06;12.23;;;7.47;;
11004;SDS011;5555;59.622;16.556;2022-10-31T07:45:32;12.10;;;7.60;;
11004;SDS011;5555;59.622;16.556;2022-10-31T07:47:58;13.20;;;6.80;;
11004;SDS011;5555;59.622;16.556;2022-10-31T07:50:25;10.93;;;7.20;;
11004;SDS011;5555;59.622;16.556;2022-10-31T07:53:05;13.17;;;8.00;;
11004;SDS011;5555;59.622;16.556;2022-10-31T07:55:32;14.23;;;7.53;;
11004;SDS011;5555;59.622;16.556;2022-10-31T07:58:09;12.77;;;7.97;;
11004;SDS011;5555;59.622;16.556;2022-10-31T08:00:40;14.57;;;9.03;;
11004;SDS011;5555;59.622;16.556;2022-10-31T08:03:08;13.80;;;8.33;;
11004;SDS011;5555;59.622;16.556;2022-10-31T08:05:38;12.53;;;8.40;;
11004;SDS011;5555;59.622;16.556;2022-10-31T08:08:06;16.07;;;8.67;;
11004;SDS011;5555;59.622;16.556;2022-10-31T08:10:33;14.40;;;8.50;;
11004;SDS011;5555;59.622;16.556;2022-10-31T08:12:59;14.23;;;8.80;;
11004;SDS011;5555;59.622;16.556;2022-10-31T08:15:29;14.20;;;7.77;;
11004;SDS011;5555;59.622;16.556;2022-10-31T08:17:56;14.70;;;8.80;;
11004;SDS011;5555;59.622;16.556;2022-10-31T08:20:21;15.97;;;8.97;;
11004;SDS011;5555;59.622;16.556;2022-10-31T08:22:57;14.47;;;9.07;;
11004;SDS011;5555;59.622;16.556;2022-10-31T08:25:28;14.23;;;8.80;;
11004;SDS011;5555;59.622;16.556;2022-10-31T08:27:56;15.63;;;8.87;;
11004;SDS011;5555;59.622;16.556;2022-10-31T08:30:22;11.47;;;8.90;;
11004;SDS011;5555;59.622;16.556;2022-10-31T08:35:26;14.13;;;8.33;;
11004;SDS011;5555;59.622;16.556;2022-10-31T08:37:55;13.57;;;8.93;;
11004;SDS011;5555;59.622;16.556;2022-10-31T08:40:22;16.67;;;9.47;;
11004;SDS011;5555;59.622;16.556;2022-10-31T08:42:55;14.03;;;8.97;;
11004;SDS011;5555;59.622;16.556;2022-10-31T08:45:24;13.87;;;8.83;;
11004;SDS011;5555;59.622;16.556;2022-10-31T08:47:51;18.83;;;10.40;;
11004;SDS011;5555;59.622;16.556;2022-10-31T08:50:16;13.77;;;8.77;;
11004;SDS011;5555;59.622;16.556;2022-10-31T08:52:42;14.23;;;9.40;;
11004;SDS011;5555;59.622;16.556;2022-10-31T08:55:08;14.23;;;9.37;;
11004;SDS011;5555;59.622;16.556;2022-10-31T08:57:33;18.77;;;10.30;;
11004;SDS011;5555;59.622;16.556;2022-10-31T08:59:59;17.40;;;10.60;;
11004;SDS011;5555;59.622;16.556;2022-10-31T09:02:25;13.97;;;9.97;;
11004;SDS011;5555;59.622;16.556;2022-10-31T09:04:50;16.53;;;10.97;;
11004;SDS011;5555;59.622;16.556;2022-10-31T09:07:16;19.67;;;11.00;;
11004;SDS011;5555;59.622;16.556;2022-10-31T09:09:42;16.80;;;11.10;;
11004;SDS011;5555;59.622;16.556;2022-10-31T09:12:07;15.10;;;11.07;;
11004;SDS011;5555;59.622;16.556;2022-10-31T09:14:33;16.57;;;11.50;;
11004;SDS011;5555;59.622;16.556;2022-10-31T09:16:58;21.47;;;11.93;;
11004;SDS011;5555;59.622;16.556;2022-10-31T09:19:24;18.10;;;10.93;;
11004;SDS011;5555;59.622;16.556;2022-10-31T09:21:53;15.57;;;11.20;;
11004;SDS011;5555;59.622;16.556;2022-10-31T09:24:19;21.90;;;11.67;;
11004;SDS011;5555;59.622;16.556;2022-10-31T09:26:45;16.87;;;11.53;;
11004;SDS011;5555;59.622;16.556;2022-10-31T09:29:10;14.23;;;10.77;;
11004;SDS011;5555;59.622;16.556;2022-10-31T09:31:36;17.43;;;11.50;;
11004;SDS011;5555;59.622;16.556;2022-10-31T09:34:02;16.30;;;10.80;;
11004;SDS011;5555;59.622;16.556;2022-10-31T09:36:28;17.53;;;11.43;;
11004;SDS011;5555;59.622;16.556;2022-10-31T09:38:54;16.43;;;11.83;;
11004;SDS011;5555;59.622;16.556;2022-10-31T09:41:24;15.03;;;11.83;;
11004;SDS011;5555;59.622;16.556;2022-10-31T09:57:14;17.77;;;11.70;;
11004;SDS011;5555;59.622;16.556;2022-10-31T09:59:43;16.00;;;11.03;;
11004;SDS011;5555;59.622;16.556;2022-10-31T10:02:17;14.00;;;10.87;;
11004;SDS011;5555;59.622;16.556;2022-10-31T10:04:56;14.80;;;9.90;;
11004;SDS011;5555;59.622;16.556;2022-10-31T10:10:20;15.60;;;11.07;;
11004;SDS011;5555;59.622;16.556;2022-10-31T10:13:04;13.93;;;10.97;;
11004;SDS011;5555;59.622;16.556;2022-10-31T10:15:47;14.20;;;10.33;;
11004;SDS011;5555;59.622;16.556;2022-10-31T10:21:06;15.23;;;10.80;;
11004;SDS011;5555;59.622;16.556;2022-10-31T10:23:56;18.17;;;12.27;;
11004;SDS011;5555;59.622;16.556;2022-10-31T10:26:37;14.10;;;11.63;;
11004;SDS011;5555;59.622;16.556;2022-10-31T10:29:26;17.27;;;12.27;;
11004;SDS011;5555;59.622;16.556;2022-10-31T10:31:58;15.90;;;12.73;;
11004;SDS011;5555;59.622;16.556;2022-10-31T10:34:34;16.53;;;13.63;;
11004;SDS011;5555;59.622;16.556;2022-10-31T10:37:08;14.87;;;12.73;;
11004;SDS011;5555;59.622;16.556;2022-10-31T10:39:46;15.50;;;11.33;;
11004;SDS011;5555;59.622;16.556;2022-10-31T10:42:17;13.70;;;11.63;;
11004;SDS011;5555;59.622;16.556;2022-10-31T10:45:07;11.80;;;10.53;;
11004;SDS011;5555;59.622;16.556;2022-10-31T10:48:02;12.67;;;11.37;;
11004;SDS011;5555;59.622;16.556;2022-10-31T10:50:39;14.83;;;11.50;;
11004;SDS011;5555;59.622;16.556;2022-10-31T10:56:38;13.87;;;11.07;;
11004;SDS011;5555;59.622;16.556;2022-10-31T10:59:21;13.40;;;10.93;;
11004;SDS011;5555;59.622;16.556;2022-10-31T11:01:51;13.03;;;10.60;;
11004;SDS011;5555;59.622;16.556;2022-10-31T11:04:30;12.23;;;10.63;;
11004;SDS011;5555;59.622;16.556;2022-10-31T11:07:05;15.30;;;11.10;;
11004;SDS011;5555;59.622;16.556;2022-10-31T11:09:32;13.70;;;11.43;;
11004;SDS011;5555;59.622;16.556;2022-10-31T11:11:59;14.67;;;11.87;;
11004;SDS011;5555;59.622;16.556;2022-10-31T11:14:33;12.97;;;11.60;;
11004;SDS011;5555;59.622;16.556;2022-10-31T11:22:46;15.27;;;11.40;;
11004;SDS011;5555;59.622;16.556;2022-10-31T11:27:58;13.83;;;11.07;;
11004;SDS011;5555;59.622;16.556;2022-10-31T11:30:24;17.70;;;12.33;;
11004;SDS011;5555;59.622;16.556;2022-10-31T11:32:50;17.63;;;11.57;;
11004;SDS011;5555;59.622;16.556;2022-10-31T11:35:17;14.73;;;11.40;;
11004;SDS011;5555;59.622;16.556;2022-10-31T11:37:45;11.60;;;9.40;;
11004;SDS011;5555;59.622;16.556;2022-10-31T11:40:22;14.07;;;10.47;;
11004;SDS011;5555;59.622;16.556;2022-10-31T11:42:50;13.13;;;9.70;;
11004;SDS011;5555;59.622;16.556;2022-10-31T11:45:27;13.13;;;9.67;;
11004;SDS011;5555;59.622;16.556;2022-10-31T11:47:59;13.50;;;9.93;;
11004;SDS011;5555;59.622;16.556;2022-10-31T11:50:33;11.43;;;9.10;;
11004;SDS011;5555;59.622;16.556;2022-10-31T11:53:02;10.27;;;9.17;;
11004;SDS011;5555;59.622;16.556;2022-10-31T11:55:33;13.20;;;9.57;;
11004;SDS011;5555;59.622;16.556;2022-10-31T11:58:00;12.10;;;9.37;;
11004;SDS011;5555;59.622;16.556;2022-10-31T12:00:30;10.10;;;9.10;;
11004;SDS011;5555;59.622;16.556;2022-10-31T12:05:47;13.40;;;9.77;;
11004;SDS011;5555;59.622;16.556;2022-10-31T12:08:17;11.17;;;8.47;;
11004;SDS011;5555;59.622;16.556;2022-10-31T12:10:51;12.07;;;9.23;;
11004;SDS011;5555;59.622;16.556;2022-10-31T12:13:51;13.37;;;8.87;;
11004;SDS011;5555;59.622;16.556;2022-10-31T12:16:37;12.67;;;8.83;;
11004;SDS011;5555;59.622;16.556;2022-10-31T12:22:08;13.47;;;9.00;;
11004;SDS011;5555;59.622;16.556;2022-10-31T12:37:59;14.80;;;9.27;;
11004;SDS011;5555;59.622;16.556;2022-10-31T12:43:46;11.60;;;8.90;;
11004;SDS011;5555;59.622;16.556;2022-10-31T12:52:31;15.93;;;8.80;;
11004;SDS011;5555;59.622;16.556;2022-10-31T12:55:25;14.53;;;8.50;;
11004;SDS011;5555;59.622;16.556;2022-10-31T12:58:26;16.53;;;9.03;;
11004;SDS011;5555;59.622;16.556;2022-10-31T13:01:10;11.60;;;9.00;;
11004;SDS011;5555;59.622;16.556;2022-10-31T13:03:44;11.67;;;7.97;;
11004;SDS011;5555;59.622;16.556;2022-10-31T13:06:18;13.17;;;8.10;;
11004;SDS011;5555;59.622;16.556;2022-10-31T13:11:50;15.37;;;9.03;;
11004;SDS011;5555;59.622;16.556;2022-10-31T13:16:48;13.07;;;8.17;;
11004;SDS011;5555;59.622;16.556;2022-10-31T13:22:00;10.87;;;7.70;;
11004;SDS011;5555;59.622;16.556;2022-10-31T13:24:57;14.17;;;7.40;;
11004;SDS011;5555;59.622;16.556;2022-10-31T13:30:20;12.37;;;6.93;;
11004;SDS011;5555;59.622;16.556;2022-10-31T13:33:05;13.80;;;7.73;;
11004;SDS011;5555;59.622;16.556;2022-10-31T13:35:52;11.77;;;8.00;;
11004;SDS011;5555;59.622;16.556;2022-10-31T13:38:54;12.43;;;7.83;;
11004;SDS011;5555;59.622;16.556;2022-10-31T13:41:51;12.47;;;7.87;;
11004;SDS011;5555;59.622;16.556;2022-10-31T13:44:26;11.40;;;7.60;;
11004;SDS011;5555;59.622;16.556;2022-10-31T13:46:54;11.90;;;7.93;;
11004;SDS011;5555;59.622;16.556;2022-10-31T13:54:38;12.97;;;6.73;;
11004;SDS011;5555;59.622;16.556;2022-10-31T13:57:28;10.67;;;7.47;;
11004;SDS011;5555;59.622;16.556;2022-10-31T13:59:56;13.60;;;6.77;;
11004;SDS011;5555;59.622;16.556;2022-10-31T14:02:28;10.87;;;7.03;;
11004;SDS011;5555;59.622;16.556;2022-10-31T14:04:57;12.50;;;7.37;;
11004;SDS011;5555;59.622;16.556;2022-10-31T14:07:26;9.43;;;6.70;;
11004;SDS011;5555;59.622;16.556;2022-10-31T14:09:54;13.87;;;7.60;;
11004;SDS011;5555;59.622;16.556;2022-10-31T14:12:24;13.00;;;7.30;;
11004;SDS011;5555;59.622;16.556;2022-10-31T14:14:52;12.27;;;7.70;;
11004;SDS011;5555;59.622;16.556;2022-10-31T14:17:24;13.57;;;7.40;;
11004;SDS011;5555;59.622;16.556;2022-10-31T14:19:59;11.03;;;6.90;;
11004;SDS011;5555;59.622;16.556;2022-10-31T14:22:31;11.33;;;7.10;;
11004;SDS011;5555;59.622;16.556;2022-10-31T14:24:58;11.80;;;6.90;;
11004;SDS011;5555;59.622;16.556;2022-10-31T14:29:53;12.57;;;7.80;;
11004;SDS011;5555;59.622;16.556;2022-10-31T14:32:22;12.20;;;7.47;;
11004;SDS011;5555;59.622;16.556;2022-10-31T14:40:07;15.70;;;7.43;;
11004;SDS011;5555;59.622;16.556;2022-10-31T14:50:50;10.40;;;6.43;;
11004;SDS011;5555;59.622;16.556;2022-10-31T14:53:19;11.73;;;7.10;;
11004;SDS011;5555;59.622;16.556;2022-10-31T14:55:50;10.67;;;6.77;;
11004;SDS011;5555;59.622;16.556;2022-10-31T14:58:20;12.00;;;6.23;;
11004;SDS011;5555;59.622;16.556;2022-10-31T15:00:50;14.33;;;7.23;;
11004;SDS011;5555;59.622;16.556;2022-10-31T15:05:54;11.63;;;6.33;;
11004;SDS011;5555;59.622;16.556;2022-10-31T15:11:18;9.47;;;5.63;;
11004;SDS011;5555;59.622;16.556;2022-10-31T15:13:53;12.47;;;6.17;;
11004;SDS011;5555;59.622;16.556;2022-10-31T15:16:35;11.37;;;6.07;;
11004;SDS011;5555;59.622;16.556;2022-10-31T15:19:10;8.67;;;4.83;;
11004;SDS011;5555;59.622;16.556;2022-10-31T15:21:41;9.73;;;5.27;;
11004;SDS011;5555;59.622;16.556;2022-10-31T15:24:15;9.67;;;4.67;;
11004;SDS011;5555;59.622;16.556;2022-10-31T15:26:44;8.83;;;5.10;;
11004;SDS011;5555;59.622;16.556;2022-10-31T15:29:13;7.57;;;4.63;;
11004;SDS011;5555;59.622;16.556;2022-10-31T15:31:49;8.37;;;4.53;;
11004;SDS011;5555;59.622;16.556;2022-10-31T15:34:25;9.10;;;5.17;;
11004;SDS011;5555;59.622;16.556;2022-10-31T15:36:55;7.70;;;4.63;;
11004;SDS011;5555;59.622;16.556;2022-10-31T15:39:21;10.37;;;5.30;;
11004;SDS011;5555;59.622;16.556;2022-10-31T15:46:55;9.33;;;4.70;;
11004;SDS011;5555;59.622;16.556;2022-10-31T15:54:57;6.60;;;4.63;;
11004;SDS011;5555;59.622;16.556;2022-10-31T15:57:26;12.00;;;5.03;;
11004;SDS011;5555;59.622;16.556;2022-10-31T15:59:52;9.10;;;4.70;;
11004;SDS011;5555;59.622;16.556;2022-10-31T16:02:19;9.17;;;4.50;;
11004;SDS011;5555;59.622;16.556;2022-10-31T16:04:52;7.60;;;4.90;;
11004;SDS011;5555;59.622;16.556;2022-10-31T16:07:28;9.60;;;5.03;;
11004;SDS011;5555;59.622;16.556;2022-10-31T16:09:56;7.77;;;4.77;;
11004;SDS011;5555;59.622;16.556;2022-10-31T16:12:24;10.23;;;5.30;;
11004;SDS011;5555;59.622;16.556;2022-10-31T16:15:01;8.93;;;4.90;;
11004;SDS011;5555;59.622;16.556;2022-10-31T16:17:28;8.37;;;4.97;;
11004;SDS011;5555;59.622;16.556;2022-10-31T16:19:58;11.40;;;5.37;;
11004;SDS011;5555;59.622;16.556;2022-10-31T16:22:30;12.97;;;5.30;;
11004;SDS011;5555;59.622;16.556;2022-10-31T16:27:37;9.40;;;5.03;;
11004;SDS011;5555;59.622;16.556;2022-10-31T16:35:49;8.47;;;4.47;;
11004;SDS011;5555;59.622;16.556;2022-10-31T16:38:16;7.33;;;4.50;;
11004;SDS011;5555;59.622;16.556;2022-10-31T16:40:42;8.90;;;4.40;;
11004;SDS011;5555;59.622;16.556;2022-10-31T16:43:09;12.07;;;5.00;;
11004;SDS011;5555;59.622;16.556;2022-10-31T16:45:37;9.73;;;5.63;;
11004;SDS011;5555;59.622;16.556;2022-10-31T16:48:13;8.43;;;4.23;;
11004;SDS011;5555;59.622;16.556;2022-10-31T16:50:41;12.77;;;4.67;;
11004;SDS011;5555;59.622;16.556;2022-10-31T16:53:08;6.80;;;4.40;;
11004;SDS011;5555;59.622;16.556;2022-10-31T16:55:34;6.53;;;4.40;;
11004;SDS011;5555;59.622;16.556;2022-10-31T16:58:15;9.10;;;4.93;;
11004;SDS011;5555;59.622;16.556;2022-10-31T17:00:43;7.83;;;4.87;;
11004;SDS011;5555;59.622;16.556;2022-10-31T17:03:09;8.23;;;4.57;;
11004;SDS011;5555;59.622;16.556;2022-10-31T17:05:35;7.33;;;4.63;;
11004;SDS011;5555;59.622;16.556;2022-10-31T17:08:02;9.37;;;5.23;;
11004;SDS011;5555;59.622;16.556;2022-10-31T17:10:28;10.67;;;5.80;;
11004;SDS011;5555;59.622;16.556;2022-10-31T17:12:54;8.53;;;5.10;;
11004;SDS011;5555;59.622;16.556;2022-10-31T17:15:25;11.57;;;5.80;;
11004;SDS011;5555;59.622;16.556;2022-10-31T17:17:52;10.87;;;5.30;;
11004;SDS011;5555;59.622;16.556;2022-10-31T17:20:28;10.37;;;5.27;;
11004;SDS011;5555;59.622;16.556;2022-10-31T17:22:55;10.97;;;5.77;;
11004;SDS011;5555;59.622;16.556;2022-10-31T17:25:23;11.10;;;6.07;;
11004;SDS011;5555;59.622;16.556;2022-10-31T17:27:51;13.53;;;5.63;;
11004;SDS011;5555;59.622;16.556;2022-10-31T17:30:17;12.50;;;6.20;;